Time;durP1;ratioP1;P1;durP2;ratioP2;P2;SDS_P1;SDS_P2;PMS_P1;PMS_P2;Temp;Humidity;BMP_temperature;BMP_pressure;BME280_temperature;BME280_humidity;BME280_pressure;Samples;Min_cycle;Max_cycle;Signal;HPM_P1;HPM_P2
2022/10/24 04:01:03;;;;;;;25.12;16.58;;;;;;;14.62;98.45;100770.94;5606581;31;83121;-58
2022/10/24 04:04:06;;;;;;;25.17;16.95;;;;;;;14.58;98.53;100784.22;5583380;31;33093;-58
2022/10/24 04:07:08;;;;;;;25.50;17.45;;;;;;;14.56;98.36;100783.72;5584093;31;33656;-59
2022/10/24 04:10:11;;;;;;;23.12;16.23;;;;;;;14.61;98.52;100796.31;5583586;31;33512;-58
2022/10/24 04:13:13;;;;;;;23.23;17.02;;;;;;;14.67;97.55;100800.50;5603619;31;33526;-58
2022/10/24 04:16:16;;;;;;;21.48;17.23;;;;;;;14.73;97.46;100804.72;5603746;31;33635;-58
2022/10/24 04:19:18;;;;;;;22.80;17.12;;;;;;;14.73;97.21;100800.13;5603864;31;33976;-58
2022/10/24 04:22:21;;;;;;;24.77;18.60;;;;;;;14.75;96.62;100805.22;5601199;31;33606;-58
2022/10/24 04:25:23;;;;;;;22.15;16.83;;;;;;;14.66;96.48;100796.22;5602018;31;33669;-58
2022/10/24 04:28:26;;;;;;;22.02;16.55;;;;;;;14.77;96.42;100795.75;5591624;31;34390;-58
2022/10/24 04:31:28;;;;;;;22.80;17.25;;;;;;;14.72;95.51;100782.34;5581634;32;34314;-58
2022/10/24 04:34:34;;;;;;;22.35;18.42;;;;;;;14.73;95.56;100783.94;5582617;31;33495;-58
2022/10/24 04:37:36;;;;;;;21.98;18.17;;;;;;;14.75;94.68;100791.75;5583575;31;33803;-58
2022/10/24 04:40:39;;;;;;;24.33;19.35;;;;;;;14.70;95.66;100787.25;5581814;32;34336;-58
2022/10/24 04:43:41;;;;;;;27.58;18.50;;;;;;;14.70;95.13;100787.25;5581611;32;34375;-58
2022/10/24 04:46:44;;;;;;;27.33;18.40;;;;;;;14.68;95.66;100778.63;5583488;31;33700;-58
2022/10/24 04:49:52;;;;;;;24.10;17.73;;;;;;;14.78;95.03;100775.75;5581670;31;33631;-58
2022/10/24 04:52:55;;;;;;;24.23;19.23;;;;;;;14.74;94.95;100769.34;5575016;32;33802;-58
2022/10/24 04:55:57;;;;;;;27.73;19.10;;;;;;;14.73;94.84;100766.94;5575409;32;34280;-58
2022/10/24 04:58:59;;;;;;;25.60;18.98;;;;;;;14.70;94.69;100770.22;5580938;31;33594;-58
2022/10/24 05:02:01;;;;;;;24.15;18.70;;;;;;;14.75;94.23;100768.25;5581452;31;33684;-59
2022/10/24 05:05:04;;;;;;;24.98;19.02;;;;;;;14.86;93.72;100760.75;5582290;31;33645;-58
2022/10/24 05:08:07;;;;;;;25.05;17.73;;;;;;;14.87;93.77;100761.56;5579640;32;33736;-58
2022/10/24 05:11:10;;;;;;;25.85;19.77;;;;;;;14.92;93.68;100762.25;5572856;32;33706;-58
2022/10/24 05:14:13;;;;;;;26.80;20.23;;;;;;;14.84;94.19;100760.28;5557568;32;33814;-58
2022/10/24 05:17:15;;;;;;;27.60;21.65;;;;;;;14.80;94.52;100776.25;5557556;32;33765;-58
2022/10/24 05:20:17;;;;;;;26.62;21.60;;;;;;;14.82;94.32;100777.84;5566291;32;33177;-58
2022/10/24 05:23:20;;;;;;;27.90;21.58;;;;;;;14.80;93.92;100794.31;5566555;32;34310;-58
2022/10/24 05:26:22;;;;;;;30.65;22.05;;;;;;;14.75;93.94;100800.63;5567668;32;34487;-58
2022/10/24 05:29:25;;;;;;;26.42;20.73;;;;;;;14.76;94.76;100796.81;5569671;31;33982;-58
2022/10/24 05:32:27;;;;;;;28.42;21.35;;;;;;;14.81;93.69;100806.75;5569000;32;33622;-58
2022/10/24 05:35:29;;;;;;;30.70;21.73;;;;;;;14.82;93.10;100805.63;5567614;32;33395;-58
2022/10/24 05:38:31;;;;;;;29.98;21.80;;;;;;;14.79;92.60;100798.94;5568851;32;33572;-58
2022/10/24 05:41:33;;;;;;;28.45;21.00;;;;;;;14.82;92.33;100813.75;5566599;32;33866;-58
2022/10/24 05:44:36;;;;;;;27.85;21.50;;;;;;;14.80;92.71;100821.31;5567120;32;34359;-58
2022/10/24 05:47:38;;;;;;;29.98;22.13;;;;;;;14.79;93.09;100808.94;5568731;32;33696;-58
2022/10/24 05:50:41;;;;;;;31.23;21.17;;;;;;;14.83;92.87;100828.81;5568537;32;33735;-58
2022/10/24 05:53:44;;;;;;;31.52;23.20;;;;;;;14.78;92.45;100837.03;5568164;32;33898;-58
2022/10/24 05:56:46;;;;;;;34.65;22.73;;;;;;;14.76;92.98;100837.31;5566552;32;33235;-58
2022/10/24 05:59:48;;;;;;;28.80;21.67;;;;;;;14.81;92.69;100836.44;5568967;32;33687;-58
2022/10/24 06:02:50;;;;;;;30.62;22.98;;;;;;;14.83;92.39;100834.22;5568901;32;33692;-58
2022/10/24 06:05:53;;;;;;;35.42;23.10;;;;;;;14.78;92.93;100845.12;5567920;32;33607;-58
2022/10/24 06:08:55;;;;;;;32.97;23.10;;;;;;;14.80;92.32;100842.91;5560536;32;33011;-58
2022/10/24 06:11:57;;;;;;;36.83;23.58;;;;;;;14.78;92.24;100840.53;5566468;32;34433;-58
2022/10/24 06:15:00;;;;;;;29.08;21.15;;;;;;;14.85;91.13;100848.22;5564765;32;33308;-58
2022/10/24 06:18:02;;;;;;;32.55;22.20;;;;;;;14.78;91.88;100842.44;5566728;32;33981;-58
2022/10/24 06:21:07;;;;;;;33.67;22.52;;;;;;;14.72;92.01;100841.69;5569109;32;33545;-58
2022/10/24 06:24:09;;;;;;;32.72;23.35;;;;;;;14.75;91.75;100843.03;5566010;32;33573;-59
2022/10/24 06:27:12;;;;;;;33.90;22.52;;;;;;;14.69;92.44;100830.72;5567125;31;33636;-58
2022/10/24 06:30:15;;;;;;;37.05;23.15;;;;;;;14.79;91.71;100834.03;5567739;32;34268;-58
2022/10/24 06:33:17;;;;;;;43.17;24.37;;;;;;;14.86;91.56;100835.53;5568142;32;33595;-58
2022/10/24 06:36:19;;;;;;;34.85;23.42;;;;;;;14.74;91.56;100834.13;5563758;32;33659;-58
2022/10/24 06:39:22;;;;;;;31.60;21.70;;;;;;;14.77;91.29;100836.22;5567992;32;34253;-58
2022/10/24 06:42:24;;;;;;;34.78;23.12;;;;;;;14.74;91.84;100836.03;5568134;32;33589;-58
2022/10/24 06:45:26;;;;;;;34.22;23.00;;;;;;;14.71;90.96;100833.91;5568152;32;33654;-58
2022/10/24 06:48:28;;;;;;;40.53;22.58;;;;;;;14.72;90.95;100830.91;5567221;32;34315;-58
2022/10/24 06:51:30;;;;;;;60.63;39.10;;;;;;;14.69;92.03;100830.72;5567214;32;33767;-58
2022/10/24 06:54:34;;;;;;;41.42;24.65;;;;;;;14.70;91.09;100826.91;5566332;32;34329;-58
2022/10/24 06:57:36;;;;;;;40.33;24.50;;;;;;;14.68;91.14;100826.41;5567587;32;33647;-58
2022/10/24 07:00:38;;;;;;;39.55;25.75;;;;;;;14.55;92.20;100820.69;5566799;32;34272;-58
2022/10/24 07:03:40;;;;;;;40.20;24.65;;;;;;;14.64;91.77;100822.72;5565651;32;33740;-58
2022/10/24 07:06:43;;;;;;;41.88;24.17;;;;;;;14.65;91.65;100821.59;5566971;32;33602;-58
2022/10/24 07:09:54;;;;;;;43.40;23.27;;;;;;;14.63;91.45;100821.88;5567717;32;33577;-58
2022/10/24 07:12:56;;;;;;;41.47;23.38;;;;;;;14.53;92.26;100822.84;5563768;32;33593;-58
2022/10/24 07:15:58;;;;;;;45.42;25.27;;;;;;;14.47;92.79;100820.50;5565069;32;33680;-58
2022/10/24 07:19:01;;;;;;;43.92;23.38;;;;;;;14.54;92.79;100832.56;5568740;32;34272;-58
2022/10/24 07:22:04;;;;;;;41.22;24.20;;;;;;;14.52;93.38;100839.34;5568019;32;33720;-58
2022/10/24 07:25:08;;;;;;;42.83;24.35;;;;;;;14.55;92.83;100850.34;5567243;32;34303;-58
2022/10/24 07:28:11;;;;;;;47.47;26.10;;;;;;;14.54;93.33;100856.06;5566853;32;34302;-58
2022/10/24 07:31:16;;;;;;;45.85;25.65;;;;;;;14.62;92.71;100862.66;5567762;32;34270;-59
2022/10/24 07:34:18;;;;;;;45.33;25.23;;;;;;;14.67;92.99;100867.97;5566970;32;33274;-58
2022/10/24 07:37:20;;;;;;;46.95;26.33;;;;;;;14.69;92.75;100861.19;5553274;32;33680;-58
2022/10/24 07:40:23;;;;;;;52.38;26.92;;;;;;;14.71;92.43;100871.69;5564508;32;33519;-58
2022/10/24 07:43:25;;;;;;;45.63;26.33;;;;;;;14.65;93.20;100862.09;5564233;32;33600;-58
2022/10/24 07:46:28;;;;;;;49.40;27.98;;;;;;;14.68;93.04;100858.78;5561686;32;33636;-58
2022/10/24 07:49:30;;;;;;;51.40;26.70;;;;;;;14.56;94.35;100851.16;5554564;32;33605;-58
2022/10/24 07:52:34;;;;;;;50.88;26.02;;;;;;;14.59;93.78;100860.56;5559841;32;33688;-58
2022/10/24 07:55:41;;;;;;;45.80;27.13;;;;;;;14.44;95.21;100864.28;5563376;32;33632;-58
2022/10/24 07:58:45;;;;;;;47.70;28.12;;;;;;;14.41;95.47;100868.38;5561608;32;33910;-58
2022/10/24 08:01:47;;;;;;;51.88;26.55;;;;;;;14.39;96.09;100878.63;5556200;32;33672;-58
2022/10/24 08:04:50;;;;;;;51.25;28.55;;;;;;;14.40;95.91;100868.66;5559537;31;33490;-58
2022/10/24 08:07:52;;;;;;;44.95;26.23;;;;;;;14.41;95.81;100875.66;5562023;32;34133;-58
2022/10/24 08:11:17;;;;;;;50.38;27.65;;;;;;;14.36;96.94;100876.53;5564691;32;33673;-58
2022/10/24 08:14:19;;;;;;;44.38;28.02;;;;;;;14.45;96.56;100876.66;5564575;32;33730;-58
2022/10/24 08:17:22;;;;;;;48.22;25.70;;;;;;;14.59;95.64;100874.06;5561935;32;34252;-58
2022/10/24 08:20:25;;;;;;;43.50;25.52;;;;;;;14.65;95.34;100864.78;5556019;32;33584;-58
2022/10/24 08:23:27;;;;;;;51.10;26.77;;;;;;;14.64;95.34;100858.59;5562826;31;33625;-58
2022/10/24 08:26:29;;;;;;;49.00;26.58;;;;;;;14.63;95.62;100856.97;5565579;32;33809;-58
2022/10/24 08:29:31;;;;;;;51.30;27.67;;;;;;;14.60;95.80;100860.25;5565519;32;34625;-58
2022/10/24 08:32:34;;;;;;;42.35;25.65;;;;;;;14.59;95.59;100857.87;5564101;32;34506;-58
2022/10/24 08:35:37;;;;;;;47.50;26.50;;;;;;;14.64;95.48;100855.09;5564618;32;33397;-58
2022/10/24 08:38:39;;;;;;;48.45;25.40;;;;;;;14.62;95.76;100844.56;5562456;32;33757;-58
2022/10/24 08:41:54;;;;;;;44.97;25.15;;;;;;;14.55;96.12;100844.97;5563117;32;33684;-58
2022/10/24 08:45:01;;;;;;;42.40;24.20;;;;;;;14.58;96.11;100848.97;5565606;32;33258;-58
2022/10/24 08:48:07;;;;;;;44.38;24.45;;;;;;;14.65;95.99;100837.78;5566106;32;34163;-58
2022/10/24 08:51:34;;;;;;;48.78;25.27;;;;;;;14.60;95.61;100835.16;5566828;32;34357;-58
2022/10/24 08:54:40;;;;;;;41.28;25.33;;;;;;;14.51;96.49;100830.47;5569668;32;34279;-58
2022/10/24 08:57:47;;;;;;;43.35;23.27;;;;;;;14.54;96.18;100819.09;5568186;32;34242;-58
2022/10/24 09:00:52;;;;;;;41.58;23.73;;;;;;;14.60;97.11;100824.38;5562976;32;34346;-58
2022/10/24 09:03:57;;;;;;;38.40;23.20;;;;;;;14.61;96.45;100813.31;5565968;32;34249;-58
2022/10/24 09:07:00;;;;;;;40.75;23.80;;;;;;;14.68;95.93;100818.31;5568309;32;34389;-58
2022/10/24 09:10:31;;;;;;;42.83;22.73;;;;;;;14.62;96.00;100811.41;5563622;32;33177;-58
2022/10/24 09:13:36;;;;;;;40.67;21.87;;;;;;;14.71;95.89;100820.44;5559765;32;34251;-58
2022/10/24 09:16:41;;;;;;;36.97;22.50;;;;;;;14.78;94.19;100824.34;5559897;32;33814;-58
2022/10/24 09:19:55;;;;;;;41.00;22.15;;;;;;;14.79;94.74;100820.53;5558353;32;33222;-58
2022/10/24 09:23:00;;;;;;;34.33;20.75;;;;;;;14.76;94.23;100821.13;5567926;32;33863;-58
2022/10/24 09:26:07;;;;;;;39.97;22.58;;;;;;;14.87;93.43;100826.34;5566483;32;33260;-58
2022/10/24 09:29:09;;;;;;;44.70;21.62;;;;;;;14.84;93.92;100821.56;5566352;32;33931;-58
2022/10/24 09:32:20;;;;;;;33.83;20.98;;;;;;;14.86;92.56;100824.75;5564188;32;33601;-58
2022/10/24 09:35:28;;;;;;;37.47;19.90;;;;;;;14.85;93.48;100828.53;5567684;32;33790;-58
2022/10/24 09:38:36;;;;;;;34.45;21.30;;;;;;;14.83;93.52;100831.53;5567836;32;33713;-58
2022/10/24 09:41:38;;;;;;;39.38;20.37;;;;;;;14.99;91.34;100849.03;5567084;32;33665;-58
2022/10/24 09:44:42;;;;;;;42.45;21.62;;;;;;;14.89;91.78;100851.94;5567599;32;33615;-58
2022/10/24 09:47:44;;;;;;;33.90;20.95;;;;;;;14.88;91.52;100858.44;5568979;32;34442;-58
2022/10/24 09:50:50;;;;;;;29.50;19.58;;;;;;;14.76;92.13;100861.59;5569646;32;33679;-58
2022/10/24 09:54:10;;;;;;;33.63;20.50;;;;;;;14.76;92.82;100863.50;5567907;32;33752;-58
2022/10/24 09:57:12;;;;;;;33.42;21.10;;;;;;;14.93;91.32;100857.53;5568902;32;33785;-58
2022/10/24 10:00:28;;;;;;;38.55;21.23;;;;;;;14.84;91.95;100856.66;5565175;32;34419;-58
2022/10/24 10:03:33;;;;;;;42.15;24.05;;;;;;;14.89;92.22;100843.84;5567352;32;34327;-58
2022/10/24 10:06:43;;;;;;;42.85;24.75;;;;;;;14.79;93.08;100846.72;5565482;32;33473;-58
2022/10/24 10:09:54;;;;;;;42.45;24.50;;;;;;;14.69;94.67;100852.28;5568684;32;33661;-58
2022/10/24 10:13:23;;;;;;;46.65;25.70;;;;;;;14.75;94.37;100845.72;5556532;32;34340;-58
2022/10/24 10:16:36;;;;;;;46.47;25.50;;;;;;;14.64;95.62;100847.00;5557931;32;33660;-58
2022/10/24 10:19:45;;;;;;;56.37;26.87;;;;;;;14.63;96.30;100845.38;5562839;32;34332;-58
2022/10/24 10:22:47;;;;;;;47.35;26.10;;;;;;;14.61;96.27;100837.59;5566338;32;33989;-58
2022/10/24 10:26:03;;;;;;;46.78;26.70;;;;;;;14.63;96.93;100834.59;5562127;32;33755;-58
2022/10/24 10:29:15;;;;;;;48.53;26.15;;;;;;;14.72;96.25;100836.31;5564650;32;33720;-58
2022/10/24 10:32:30;;;;;;;47.28;25.20;;;;;;;14.65;96.62;100830.50;5557764;32;33579;-58
2022/10/24 10:36:02;;;;;;;54.78;26.62;;;;;;;14.71;96.90;100832.00;5555952;32;34377;-58
2022/10/24 10:39:18;;;;;;;45.38;25.70;;;;;;;14.75;96.49;100827.63;5561818;32;34294;-58
2022/10/24 10:42:39;;;;;;;39.00;23.90;;;;;;;14.78;95.86;100832.44;5566796;32;34446;-59
2022/10/24 10:45:47;;;;;;;41.10;24.55;;;;;;;14.59;96.05;100828.19;5561722;32;34318;-58
2022/10/24 10:49:09;;;;;;;42.67;25.65;;;;;;;14.75;95.27;100829.53;5564655;31;33633;-58
2022/10/24 10:52:16;;;;;;;52.55;25.08;;;;;;;14.74;95.92;100825.22;5567467;32;34169;-58
2022/10/24 10:55:24;;;;;;;43.58;24.52;;;;;;;14.90;95.46;100813.06;5566867;32;34332;-58
2022/10/24 10:58:55;;;;;;;41.42;26.05;;;;;;;14.98;94.25;100806.16;5564602;32;33665;-58
2022/10/24 11:02:16;;;;;;;43.85;24.05;;;;;;;14.87;96.30;100804.75;5553125;31;34305;-58
2022/10/24 11:05:32;;;;;;;41.17;23.87;;;;;;;15.00;94.21;100804.78;5567795;31;34456;-58
2022/10/24 11:08:56;;;;;;;42.85;24.15;;;;;;;14.98;92.88;100798.84;5564424;31;33600;-58
2022/10/24 11:12:14;;;;;;;46.00;23.23;;;;;;;14.86;93.79;100806.63;5563113;31;34364;-58
2022/10/24 11:15:25;;;;;;;41.45;22.95;;;;;;;14.99;93.65;100805.06;5567115;31;33826;-58
2022/10/24 11:18:35;;;;;;;41.15;24.58;;;;;;;14.94;93.81;100805.16;5562857;32;33668;-58
2022/10/24 11:21:40;;;;;;;43.17;23.52;;;;;;;14.93;93.52;100792.75;5563682;32;33768;-58
2022/10/24 11:24:49;;;;;;;45.00;23.83;;;;;;;14.92;94.11;100791.16;5567179;32;34376;-58
2022/10/24 11:28:17;;;;;;;39.67;22.90;;;;;;;15.06;94.23;100800.06;5566926;32;33705;-58
2022/10/24 11:31:27;;;;;;;42.62;24.85;;;;;;;15.16;92.16;100807.16;5567088;32;33473;-58
2022/10/24 11:34:37;;;;;;;43.13;23.52;;;;;;;15.02;93.45;100802.56;5568560;32;34510;-58
2022/10/24 11:37:43;;;;;;;40.97;23.55;;;;;;;15.04;93.24;100797.66;5566991;32;34248;-58
2022/10/24 11:40:53;;;;;;;48.87;25.20;;;;;;;15.10;93.06;100784.88;5564267;32;34897;-58
2022/10/24 11:44:11;;;;;;;38.60;23.27;;;;;;;15.13;92.17;100789.69;5563738;32;34333;-58
2022/10/24 11:47:22;;;;;;;46.95;24.08;;;;;;;15.15;92.02;100798.25;5563245;32;34439;-59
2022/10/24 11:50:47;;;;;;;47.50;25.48;;;;;;;15.10;93.01;100784.88;5565037;32;33496;-58
2022/10/24 11:54:02;;;;;;;42.50;23.80;;;;;;;15.11;91.66;100777.56;5564705;32;33632;-58
2022/10/24 11:57:16;;;;;;;45.20;23.35;;;;;;;15.17;91.42;100785.28;5567665;32;34398;-58
2022/10/24 12:00:23;;;;;;;44.17;24.92;;;;;;;15.30;91.87;100780.13;5559733;32;33663;-58
2022/10/24 12:03:41;;;;;;;49.20;25.70;;;;;;;15.27;91.61;100782.34;5568256;32;33617;-58
2022/10/24 12:07:01;;;;;;;46.65;25.23;;;;;;;15.21;91.29;100780.06;5568218;32;33666;-58
2022/10/24 12:10:22;;;;;;;53.47;24.75;;;;;;;15.16;91.89;100783.66;5568563;32;33762;-58
2022/10/24 12:13:43;;;;;;;47.53;25.23;;;;;;;15.17;91.65;100787.19;5568237;32;33944;-56
2022/10/24 12:16:54;;;;;;;38.35;23.87;;;;;;;15.21;91.04;100775.47;5568155;32;34416;-56
2022/10/24 12:20:00;;;;;;;40.33;24.73;;;;;;;15.26;91.41;100774.53;5568228;32;33894;-56
2022/10/24 12:23:03;;;;;;;45.00;25.08;;;;;;;15.20;91.51;100767.66;5565217;32;33178;-56
2022/10/24 12:26:23;;;;;;;38.05;23.90;;;;;;;15.21;92.41;100764.66;5559971;32;33718;-56
2022/10/24 12:29:26;;;;;;;42.40;23.48;;;;;;;15.39;91.51;100756.72;5558959;32;33768;-56
2022/10/24 12:32:39;;;;;;;37.92;24.23;;;;;;;15.47;91.40;100748.72;5551164;32;33855;-56
2022/10/24 12:35:45;;;;;;;44.78;24.42;;;;;;;15.59;90.32;100744.66;5551055;32;34465;-56
2022/10/24 12:38:47;;;;;;;;;;;;;;;15.60;88.76;100752.50;5551266;32;33739;-57
2022/10/24 12:41:50;;;;;;;45.05;24.42;;;;;;;15.56;89.95;100750.69;5551094;32;34009;-56
2022/10/24 12:44:58;;;;;;;46.97;23.80;;;;;;;15.49;91.17;100751.87;5551028;32;33761;-56
2022/10/24 12:48:30;;;;;;;44.10;26.50;;;;;;;15.43;90.41;100755.00;5551169;32;33754;-56
2022/10/24 12:51:37;;;;;;;42.95;24.90;;;;;;;15.32;91.81;100757.12;5551239;32;33647;-56
2022/10/24 12:54:43;;;;;;;40.03;24.85;;;;;;;15.35;91.84;100739.53;5550949;32;33588;-56
2022/10/24 12:57:45;;;;;;;;;;;;;;;15.45;91.67;100742.00;5551337;32;34315;-56
2022/10/24 13:01:00;;;;;;;37.60;22.85;;;;;;;15.49;90.79;100729.47;5551067;32;34695;-56
2022/10/24 13:04:36;;;;;;;40.90;24.52;;;;;;;15.52;91.03;100726.16;5550925;32;33805;-56
2022/10/24 13:07:57;;;;;;;38.65;26.12;;;;;;;15.56;91.21;100719.06;5550985;32;33667;-56
2022/10/24 13:11:08;;;;;;;53.53;37.17;;;;;;;15.59;91.20;100710.34;5550970;32;33791;-56
2022/10/24 13:14:38;;;;;;;38.97;24.67;;;;;;;15.66;91.38;100713.47;5550905;32;33702;-56
2022/10/24 13:18:10;;;;;;;44.15;23.23;;;;;;;15.69;90.72;100741.75;5550534;32;34371;-56
2022/10/24 13:21:19;;;;;;;36.50;23.67;;;;;;;15.69;91.58;100720.12;5568828;32;33606;-56
2022/10/24 13:24:26;;;;;;;46.08;24.55;;;;;;;15.76;91.18;100709.72;5569820;32;34853;-56
2022/10/24 13:27:30;;;;;;;61.37;43.92;;;;;;;15.76;94.85;100706.19;5569405;32;34353;-56
2022/10/24 13:30:32;;;;;;;41.50;25.27;;;;;;;15.92;89.33;100704.72;5569969;32;34435;-56
2022/10/24 13:33:38;;;;;;;40.30;26.12;;;;;;;15.90;89.16;100709.66;5569571;32;34355;-56
2022/10/24 13:36:41;;;;;;;44.33;29.35;;;;;;;15.94;89.47;100705.22;5569963;32;33687;-56
2022/10/24 13:39:49;;;;;;;42.75;26.35;;;;;;;15.98;89.47;100714.31;5569818;32;33694;-56
2022/10/24 13:42:59;;;;;;;44.80;31.17;;;;;;;15.97;89.71;100712.72;5569592;32;34407;-57
2022/10/24 13:46:08;;;;;;;43.10;25.55;;;;;;;16.00;90.36;100712.13;5569887;32;33830;-56
2022/10/24 13:49:22;;;;;;;39.67;24.23;;;;;;;16.00;90.02;100705.91;5569780;32;34257;-56
2022/10/24 13:52:27;;;;;;;42.17;24.45;;;;;;;15.94;89.64;100702.53;5569871;32;34429;-56
2022/10/24 13:55:35;;;;;;;39.47;23.73;;;;;;;15.81;89.74;100711.50;5559032;32;34434;-56
2022/10/24 13:58:40;;;;;;;37.85;22.45;;;;;;;15.79;90.54;100713.69;5550264;32;34280;-56
2022/10/24 14:01:46;;;;;;;39.88;23.10;;;;;;;15.71;91.28;100713.34;5550428;32;34449;-56
2022/10/24 14:04:48;;;;;;;40.88;23.42;;;;;;;15.73;92.26;100699.53;5549956;32;33800;-56
2022/10/24 14:07:56;;;;;;;38.17;24.20;;;;;;;15.76;91.13;100703.50;5550213;32;33723;-56
2022/10/24 14:11:28;;;;;;;38.08;22.45;;;;;;;15.78;91.35;100710.19;5561165;32;33385;-57
2022/10/24 14:14:38;;;;;;;36.75;22.23;;;;;;;15.73;91.74;100705.72;5561372;31;33640;-57
2022/10/24 14:17:52;;;;;;;57.40;43.63;;;;;;;15.78;92.11;100706.69;5569043;32;34369;-56
2022/10/24 14:21:00;;;;;;;47.58;33.80;;;;;;;15.91;90.99;100703.94;5569445;32;34523;-56
2022/10/24 14:24:12;;;;;;;54.00;33.00;;;;;;;15.96;90.31;100689.50;5568883;32;33601;-57
2022/10/24 14:27:15;;;;;;;56.35;39.20;;;;;;;15.96;90.40;100698.41;5569278;32;33739;-57
2022/10/24 14:30:21;;;;;;;72.22;49.95;;;;;;;15.96;91.37;100695.72;5569453;32;33604;-56
2022/10/24 14:33:28;;;;;;;50.22;34.92;;;;;;;15.97;90.71;100699.22;5569648;32;33453;-55
2022/10/24 14:36:34;;;;;;;39.58;26.48;;;;;;;15.98;90.80;100698.09;5569270;32;33765;-56
2022/10/24 14:39:37;;;;;;;;;;;;;;;16.00;90.85;100700.50;5569850;32;33813;-56
2022/10/24 14:42:40;;;;;;;38.95;23.77;;;;;;;16.00;90.69;100697.81;5568747;32;33743;-56
2022/10/24 14:46:20;;;;;;;39.35;24.12;;;;;;;16.00;90.50;100697.81;5569232;32;34493;-56
2022/10/24 14:49:35;;;;;;;39.80;25.23;;;;;;;16.00;90.87;100692.41;5569705;32;34342;-56
2022/10/24 14:52:38;;;;;;;39.22;27.00;;;;;;;16.01;91.19;100693.97;5569383;32;34379;-56
2022/10/24 14:55:49;;;;;;;43.58;24.92;;;;;;;15.97;90.97;100683.00;5569224;32;34445;-57
2022/10/24 14:58:55;;;;;;;44.17;25.60;;;;;;;15.96;90.87;100694.91;5567717;32;33668;-56
2022/10/24 15:02:04;;;;;;;46.67;25.67;;;;;;;15.95;91.12;100687.91;5569590;32;33541;-57
2022/10/24 15:05:19;;;;;;;38.10;23.02;;;;;;;15.94;91.58;100689.81;5569316;32;33698;-56
2022/10/24 15:08:39;;;;;;;32.42;22.23;;;;;;;15.94;92.05;100697.13;5568006;32;34436;-56
2022/10/24 15:11:57;;;;;;;38.33;21.73;;;;;;;15.92;92.39;100700.12;5566169;32;34242;-56
2022/10/24 15:15:23;;;;;;;38.00;21.87;;;;;;;15.88;91.67;100701.84;5569172;32;33252;-56
2022/10/24 15:18:28;;;;;;;33.95;21.55;;;;;;;15.87;91.65;100697.56;5569374;32;34316;-56
2022/10/24 15:21:37;;;;;;;40.72;23.67;;;;;;;15.87;91.97;100694.84;5569295;32;33799;-56
2022/10/24 15:24:39;;;;;;;43.17;22.25;;;;;;;15.93;91.91;100698.25;5569161;32;33694;-56
2022/10/24 15:27:45;;;;;;;34.97;22.62;;;;;;;15.89;92.54;100694.53;5569081;32;34463;-57
2022/10/24 15:30:48;;;;;;;32.72;23.17;;;;;;;15.95;92.34;100685.19;5569206;32;34300;-58
2022/10/24 15:33:50;;;;;;;45.03;23.73;;;;;;;15.91;92.86;100679.59;5569149;32;33758;-57
2022/10/24 15:36:52;;;;;;;37.63;23.38;;;;;;;15.97;92.35;100672.16;5569149;32;33773;-57
2022/10/24 15:39:55;;;;;;;41.05;24.50;;;;;;;15.95;92.59;100677.06;5568988;32;33686;-58
2022/10/24 15:42:59;;;;;;;37.45;23.05;;;;;;;15.92;92.68;100678.50;5568865;32;34282;-58
2022/10/24 15:46:03;;;;;;;36.97;22.15;;;;;;;16.00;94.12;100681.56;5568722;32;34293;-58
2022/10/24 15:49:05;;;;;;;35.70;21.83;;;;;;;16.02;93.33;100679.34;5566396;32;34434;-57
2022/10/24 15:52:13;;;;;;;41.60;23.10;;;;;;;16.04;93.34;100682.56;5549656;32;33785;-57
2022/10/24 15:55:18;;;;;;;45.03;24.58;;;;;;;15.98;92.78;100682.66;5561684;32;33914;-57
2022/10/24 15:58:20;;;;;;;41.50;24.20;;;;;;;16.03;93.30;100681.75;5566112;32;33751;-56
